Time;durP1;ratioP1;P1;durP2;ratioP2;P2;SDS_P1;SDS_P2;PMS_P1;PMS_P2;Temp;Humidity;BMP_temperature;BMP_pressure;BME280_temperature;BME280_humidity;BME280_pressure;Samples;Min_cycle;Max_cycle;Signal;HPM_P1;HPM_P2
2023/02/11 00:02:13;;;;;;;4.88;1.02;;;-2.70;91.10;;;;;;20908962;28;20524;-59
2023/02/11 00:12:14;;;;;;;4.15;1.33;;;-2.80;88.80;;;;;;20907800;28;20099;-59
2023/02/11 00:22:16;;;;;;;2.60;0.90;;;-2.70;90.80;;;;;;20907196;28;20921;-59
2023/02/11 00:32:18;;;;;;;1.90;0.90;;;-2.80;92.20;;;;;;20906481;28;20090;-62
2023/02/11 00:42:19;;;;;;;2.75;0.90;;;-3.00;92.40;;;;;;20905359;28;20029;-59
2023/02/11 00:52:21;;;;;;;2.63;0.70;;;-2.90;90.70;;;;;;20904811;28;20102;-60
2023/02/11 01:02:23;;;;;;;1.80;0.80;;;-2.90;90.50;;;;;;20902924;28;20037;-59
2023/02/11 01:12:24;;;;;;;1.50;0.80;;;-2.90;91.00;;;;;;20903490;28;20033;-59
2023/02/11 01:22:26;;;;;;;1.17;0.70;;;-2.90;91.70;;;;;;20902771;28;20052;-60
2023/02/11 01:32:28;;;;;;;1.15;0.80;;;-2.90;91.60;;;;;;20902222;28;20037;-59
2023/02/11 01:42:29;;;;;;;1.45;0.70;;;-2.80;90.70;;;;;;20901840;28;20033;-60
2023/02/11 01:52:38;;;;;;;1.85;0.63;;;-2.60;90.40;;;;;;20913504;28;20385;-60
2023/02/11 02:02:42;;;;;;;1.20;0.63;;;-2.60;90.70;;;;;;20917069;28;20048;-58
2023/02/11 02:12:44;;;;;;;1.60;0.68;;;-2.70;90.20;;;;;;20915820;28;20045;-59
2023/02/11 02:23:06;;;;;;;1.75;0.70;;;-2.50;89.60;;;;;;20912282;28;20104;-60
2023/02/11 02:33:24;;;;;;;1.92;0.90;;;-2.30;89.50;;;;;;20914727;28;20482;-59
2023/02/11 02:43:26;;;;;;;1.70;0.60;;;-2.30;88.10;;;;;;20910984;28;20467;-60
2023/02/11 02:54:02;;;;;;;1.55;0.50;;;-2.30;88.60;;;;;;20914012;28;20044;-60
2023/02/11 03:04:19;;;;;;;1.75;0.80;;;-2.60;88.50;;;;;;20910226;28;20064;-60
2023/02/11 03:14:23;;;;;;;1.05;0.47;;;-2.50;87.60;;;;;;20911034;28;20450;-59
2023/02/11 03:24:31;;;;;;;1.20;0.60;;;-2.50;88.30;;;;;;20911939;28;20029;-59
2023/02/11 03:35:11;;;;;;;0.82;0.40;;;-2.60;87.20;;;;;;20907878;28;20398;-60
2023/02/11 03:45:18;;;;;;;1.15;0.35;;;-2.50;87.70;;;;;;20904526;28;20048;-61
2023/02/11 03:55:22;;;;;;;0.77;0.38;;;-2.40;88.30;;;;;;20909332;28;20025;-60
2023/02/11 04:05:23;;;;;;;0.98;0.50;;;-2.50;88.40;;;;;;20907247;28;20041;-59
2023/02/11 04:15:25;;;;;;;0.70;0.40;;;-2.50;89.90;;;;;;20907296;28;20041;-60
2023/02/11 04:25:27;;;;;;;1.40;0.60;;;-2.40;89.30;;;;;;20906889;28;20025;-60
2023/02/11 04:35:28;;;;;;;0.70;0.50;;;-2.30;87.80;;;;;;20906353;28;20025;-59
2023/02/11 04:45:30;;;;;;;0.75;0.40;;;-2.30;88.90;;;;;;20907902;28;20055;-60
2023/02/11 04:55:32;;;;;;;0.60;0.40;;;-2.30;89.20;;;;;;20904548;28;20028;-61
2023/02/11 05:05:33;;;;;;;0.60;0.40;;;-2.10;87.70;;;;;;20904284;28;20103;-59
2023/02/11 05:15:35;;;;;;;0.85;0.47;;;-2.00;88.10;;;;;;20903309;28;20082;-60
2023/02/11 05:25:37;;;;;;;0.73;0.32;;;-2.20;88.40;;;;;;20902149;28;20373;-60
2023/02/11 05:35:39;;;;;;;0.80;0.40;;;-2.30;85.40;;;;;;20899417;28;20044;-60
2023/02/11 05:45:41;;;;;;;2.13;0.20;;;-2.10;88.20;;;;;;20901860;28;20389;-59
2023/02/11 05:55:42;;;;;;;0.88;0.40;;;-2.10;88.50;;;;;;20904257;28;20448;-58
2023/02/11 06:05:45;;;;;;;0.60;0.30;;;-1.90;86.20;;;;;;20903957;28;20059;-59
2023/02/11 06:15:59;;;;;;;0.80;0.40;;;-1.80;86.90;;;;;;20901378;28;20429;-59
2023/02/11 06:26:03;;;;;;;0.40;0.30;;;-1.90;87.00;;;;;;20898059;28;20494;-59
2023/02/11 06:36:16;;;;;;;0.80;0.50;;;-2.10;87.30;;;;;;20903488;28;20478;-60
2023/02/11 06:46:18;;;;;;;0.55;0.38;;;-2.00;89.00;;;;;;20914469;28;20543;-61
2023/02/11 06:56:22;;;;;;;1.08;0.47;;;-1.90;89.50;;;;;;20911168;28;20033;-61
2023/02/11 07:06:26;;;;;;;0.93;0.40;;;-2.00;90.00;;;;;;20912679;28;20143;-61
2023/02/11 07:16:28;;;;;;;0.90;0.40;;;-1.70;88.00;;;;;;20912603;28;20028;-61
2023/02/11 07:26:30;;;;;;;2.20;0.80;;;-1.40;87.40;;;;;;20911658;28;20503;-59
2023/02/11 07:36:32;;;;;;;0.82;0.45;;;-1.20;88.40;;;;;;20909648;28;20049;-58
2023/02/11 07:46:34;;;;;;;1.45;0.60;;;-0.70;86.80;;;;;;20910640;28;20036;-59
2023/02/11 07:56:36;;;;;;;1.00;0.40;;;-0.40;87.40;;;;;;20909298;28;20142;-62
2023/02/11 08:06:42;;;;;;;0.85;0.40;;;-0.10;88.00;;;;;;20907219;28;20045;-60
2023/02/11 08:16:43;;;;;;;1.08;0.40;;;0.50;85.70;;;;;;20908078;28;20036;-60
2023/02/11 08:26:45;;;;;;;0.50;0.30;;;1.30;82.70;;;;;;20905525;28;20025;-60
2023/02/11 08:36:48;;;;;;;0.75;0.40;;;2.30;79.90;;;;;;20906211;28;20021;-59
2023/02/11 08:46:50;;;;;;;0.77;0.40;;;3.20;82.20;;;;;;20905761;28;20040;-61
2023/02/11 08:56:52;;;;;;;3.65;0.60;;;4.30;79.50;;;;;;20904554;28;20086;-59
2023/02/11 09:06:54;;;;;;;1.15;0.47;;;5.50;76.30;;;;;;20904837;28;20552;-60
2023/02/11 09:16:56;;;;;;;0.70;0.43;;;5.40;75.40;;;;;;20903551;28;20044;-59
2023/02/11 09:26:58;;;;;;;1.17;0.70;;;6.30;72.50;;;;;;20902932;28;20059;-60
2023/02/11 09:37:00;;;;;;;1.63;0.60;;;7.60;64.50;;;;;;20903310;28;20032;-60
2023/02/11 09:47:24;;;;;;;1.30;0.70;;;8.30;58.20;;;;;;20902081;28;20055;-61
2023/02/11 09:57:32;;;;;;;2.15;0.60;;;9.40;57.50;;;;;;20901446;28;20075;-59
2023/02/11 10:07:59;;;;;;;0.80;0.60;;;10.20;58.20;;;;;;20902328;28;20071;-60
2023/02/11 10:18:22;;;;;;;0.60;0.60;;;10.30;51.80;;;;;;20915756;28;20041;-60
2023/02/11 10:28:31;;;;;;;1.08;0.60;;;9.90;52.40;;;;;;20913792;28;20170;-60
2023/02/11 10:38:35;;;;;;;3.15;1.00;;;9.90;54.40;;;;;;20914546;28;20036;-60
2023/02/11 10:48:51;;;;;;;1.50;1.00;;;10.70;54.80;;;;;;20910624;28;20033;-61
2023/02/11 10:59:00;;;;;;;2.45;0.90;;;11.70;53.40;;;;;;20911059;28;20051;-59
2023/02/11 11:09:02;;;;;;;2.13;1.20;;;11.70;56.80;;;;;;20912879;28;20045;-62
2023/02/11 11:19:06;;;;;;;3.95;1.00;;;12.50;52.40;;;;;;20911368;28;20036;-61
2023/02/11 11:29:30;;;;;;;1.52;0.95;;;11.60;53.40;;;;;;20910424;28;20113;-61
2023/02/11 11:39:34;;;;;;;1.95;1.20;;;10.60;56.90;;;;;;20908656;28;20054;-60
2023/02/11 11:49:44;;;;;;;3.25;1.20;;;10.60;55.50;;;;;;20910471;28;20036;-60
2023/02/11 11:59:46;;;;;;;2.45;1.48;;;10.50;52.40;;;;;;20887755;28;20028;-60
2023/02/11 12:10:09;;;;;;;2.67;1.30;;;9.70;54.30;;;;;;20907986;28;20079;-59
2023/02/11 12:20:49;;;;;;;2.75;1.60;;;10.00;54.60;;;;;;20905175;28;20036;-59
2023/02/11 12:31:12;;;;;;;2.73;1.63;;;11.00;55.10;;;;;;20904761;28;20033;-59
2023/02/11 12:52:20;;;;;;;2.50;1.58;;;11.80;51.40;;;;;;20907347;28;20056;-58
2023/02/11 13:02:27;;;;;;;2.83;2.00;;;11.80;53.20;;;;;;20893156;28;20478;-59
2023/02/11 13:23:38;;;;;;;3.78;2.47;;;12.00;53.20;;;;;;20897241;28;20040;-60
2023/02/11 13:33:43;;;;;;;4.77;2.90;;;12.10;53.60;;;;;;20899928;28;20059;-60
2023/02/11 13:44:04;;;;;;;4.55;3.00;;;11.70;56.50;;;;;;20922528;28;20328;-60
2023/02/11 13:54:08;;;;;;;5.63;3.38;;;10.80;55.60;;;;;;20859923;28;20539;-60
2023/02/11 14:15:11;;;;;;;5.40;3.63;;;9.30;59.00;;;;;;20820248;28;20030;-61
2023/02/11 14:25:21;;;;;;;;;;;8.80;59.10;;;;;;20866277;28;20037;-61
2023/02/11 14:35:25;;;;;;;7.60;3.13;;;8.20;62.50;;;;;;20901393;28;19913;-60
2023/02/11 14:45:29;;;;;;;6.82;3.88;;;8.10;61.30;;;;;;20901570;28;20036;-62
2023/02/11 14:55:39;;;;;;;6.57;3.55;;;7.50;61.80;;;;;;20905008;28;20102;-62
2023/02/11 15:05:41;;;;;;;8.10;3.80;;;7.00;64.40;;;;;;20915334;28;20037;-61
2023/02/11 15:15:45;;;;;;;5.80;3.90;;;6.50;63.10;;;;;;20914766;28;20044;-61
2023/02/11 15:25:51;;;;;;;8.60;4.65;;;6.30;64.60;;;;;;20913844;28;20029;-62
2023/02/11 15:35:53;;;;;;;8.80;3.60;;;6.20;70.20;;;;;;20912805;28;20094;-62
2023/02/11 15:46:00;;;;;;;8.57;3.25;;;5.80;72.60;;;;;;20912308;28;20040;-63
2023/02/11 15:56:17;;;;;;;3.53;1.90;;;5.00;79.60;;;;;;20910267;28;20037;-60
2023/02/11 16:06:23;;;;;;;2.17;1.20;;;4.40;82.00;;;;;;20907709;28;20037;-63
2023/02/11 16:16:34;;;;;;;1.30;0.90;;;4.00;82.50;;;;;;20908601;28;20095;-62
2023/02/11 16:26:42;;;;;;;0.43;0.10;;;3.80;84.10;;;;;;20908866;28;20094;-60
2023/02/11 16:36:44;;;;;;;2.97;0.73;;;3.70;91.60;;;;;;20905758;28;20033;-60
2023/02/11 16:46:45;;;;;;;0.28;0.10;;;3.80;90.70;;;;;;20907546;28;20420;-60
2023/02/11 16:56:47;;;;;;;0.90;0.50;;;3.70;93.60;;;;;;20906303;28;20083;-60
2023/02/11 17:06:49;;;;;;;0.20;0.10;;;3.40;91.50;;;;;;20906022;28;20563;-63
2023/02/11 17:16:51;;;;;;;0.52;0.20;;;3.00;94.50;;;;;;20905459;28;20040;-63
2023/02/11 17:26:53;;;;;;;0.17;0.10;;;2.80;92.90;;;;;;20904534;28;20033;-63
2023/02/11 17:36:56;;;;;;;0.25;0.00;;;2.80;95.80;;;;;;20900813;28;20033;-61
2023/02/11 17:46:58;;;;;;;0.20;0.00;;;2.70;96.70;;;;;;20893723;28;20033;-61
2023/02/11 17:57:00;;;;;;;0.20;0.00;;;2.90;96.70;;;;;;20889034;28;20095;-61
2023/02/11 18:07:02;;;;;;;0.88;0.00;;;3.10;97.60;;;;;;20855502;28;20095;-60
2023/02/11 18:17:04;;;;;;;0.45;0.10;;;3.10;97.90;;;;;;20881092;28;20041;-62
2023/02/11 18:27:05;;;;;;;0.40;0.00;;;3.20;98.00;;;;;;20882832;28;20482;-61
2023/02/11 18:37:07;;;;;;;0.20;0.00;;;3.20;97.90;;;;;;20915486;28;20394;-60
2023/02/11 18:47:09;;;;;;;0.50;0.00;;;3.30;98.30;;;;;;20866707;28;20037;-58
2023/02/11 18:57:11;;;;;;;0.20;0.08;;;3.20;98.90;;;;;;20893918;28;20045;-62
2023/02/11 19:07:13;;;;;;;0.13;0.00;;;3.20;98.50;;;;;;20915158;28;20494;-60
2023/02/11 19:17:14;;;;;;;0.40;0.10;;;3.20;98.40;;;;;;20914759;28;20067;-60
2023/02/11 19:27:16;;;;;;;0.10;0.00;;;3.20;98.60;;;;;;20913592;28;20033;-60
2023/02/11 19:37:18;;;;;;;0.28;0.10;;;3.10;99.20;;;;;;20899899;28;20509;-61
2023/02/11 19:47:26;;;;;;;0.30;0.10;;;3.00;99.50;;;;;;20874054;28;20087;-60
2023/02/11 19:57:28;;;;;;;1.85;0.10;;;3.00;99.80;;;;;;20909878;28;20474;-59
2023/02/11 20:07:29;;;;;;;0.20;0.10;;;3.00;99.70;;;;;;20876481;28;20045;-59
2023/02/11 20:17:31;;;;;;;1.17;0.10;;;3.10;99.90;;;;;;20853913;28;20053;-60
2023/02/11 20:27:33;;;;;;;0.20;0.00;;;3.10;99.90;;;;;;20892391;28;20029;-60
2023/02/11 20:37:35;;;;;;;0.43;0.10;;;3.30;99.90;;;;;;20907694;28;20028;-59
2023/02/11 20:47:37;;;;;;;0.15;0.10;;;3.30;99.90;;;;;;20906515;28;20073;-59
2023/02/11 20:57:39;;;;;;;0.73;0.00;;;3.30;99.90;;;;;;20905789;28;20033;-62
2023/02/11 21:07:41;;;;;;;0.10;0.00;;;3.20;99.90;;;;;;20980671;28;20443;-58
2023/02/11 21:17:42;;;;;;;1.38;0.00;;;3.60;99.90;;;;;;20938373;28;20036;-58
2023/02/11 21:27:44;;;;;;;0.40;0.00;;;3.80;99.90;;;;;;20962955;28;20094;-57
2023/02/11 21:37:49;;;;;;;1.02;0.08;;;3.70;99.90;;;;;;20965595;28;20029;-58
2023/02/11 21:47:51;;;;;;;0.10;0.10;;;3.80;99.60;;;;;;20986183;28;20467;-62
2023/02/11 21:57:53;;;;;;;0.52;0.10;;;3.90;98.90;;;;;;20968306;28;20032;-62
2023/02/11 22:07:55;;;;;;;0.35;0.10;;;3.90;98.40;;;;;;20969301;28;20032;-62
2023/02/11 22:17:56;;;;;;;0.22;0.00;;;4.10;98.90;;;;;;21001844;28;20350;-59
2023/02/11 22:27:58;;;;;;;4.18;1.00;;;3.60;98.80;;;;;;20984820;28;20082;-59
2023/02/11 22:38:00;;;;;;;1.65;0.60;;;4.40;97.50;;;;;;20973148;28;20041;-61
2023/02/11 22:48:02;;;;;;;0.10;0.08;;;4.90;96.70;;;;;;20999237;28;20072;-62
2023/02/11 22:58:04;;;;;;;0.17;0.08;;;5.30;95.60;;;;;;20982291;28;20470;-61
2023/02/11 23:08:10;;;;;;;0.85;0.00;;;5.50;95.20;;;;;;20973252;28;20044;-59
2023/02/11 23:18:13;;;;;;;0.30;0.05;;;5.60;94.90;;;;;;20996892;28;20048;-59
2023/02/11 23:28:14;;;;;;;0.77;0.00;;;5.30;95.80;;;;;;20980478;28;20074;-62
2023/02/11 23:38:16;;;;;;;0.10;0.00;;;5.20;95.90;;;;;;20985743;28;20037;-59
2023/02/11 23:48:18;;;;;;;0.60;0.10;;;4.90;96.70;;;;;;20994663;28;20036;-59
2023/02/11 23:58:19;;;;;;;0.10;0.00;;;4.50;97.20;;;;;;20957508;28;20062;-59
